createdAt,value
2023-04-28T00:00:04.352Z,19.80
2023-04-28T00:05:26.256Z,21.90
2023-04-28T00:10:48.126Z,21.88
2023-04-28T00:16:09.953Z,21.85
2023-04-28T00:21:31.760Z,24.23
2023-04-28T00:26:53.646Z,22.20
2023-04-28T00:32:15.474Z,21.42
2023-04-28T00:37:38.224Z,24.55
2023-04-28T00:43:00.030Z,19.60
2023-04-28T00:48:22.010Z,22.77
2023-04-28T00:53:44.950Z,19.92
2023-04-28T00:59:06.762Z,30.30
2023-04-28T01:04:29.921Z,20.75
2023-04-28T01:09:51.882Z,24.10
2023-04-28T01:15:18.660Z,25.70
2023-04-28T01:20:40.486Z,31.63
2023-04-28T01:26:02.439Z,26.75
2023-04-28T01:31:24.299Z,33.15
2023-04-28T01:36:46.134Z,32.67
2023-04-28T01:42:07.978Z,30.30
2023-04-28T01:47:29.810Z,27.48
2023-04-28T01:52:51.620Z,28.77
2023-04-28T01:58:13.915Z,29.02
2023-04-28T02:03:35.917Z,32.20
2023-04-28T02:08:57.910Z,36.47
2023-04-28T02:14:19.730Z,34.22
2023-04-28T02:19:41.555Z,32.70
2023-04-28T02:25:03.569Z,31.88
2023-04-28T02:30:25.357Z,37.35
2023-04-28T02:35:47.153Z,33.20
2023-04-28T02:41:09.377Z,28.88
2023-04-28T02:46:31.369Z,31.20
2023-04-28T02:51:53.179Z,31.73
2023-04-28T02:57:15.015Z,28.95
2023-04-28T03:02:36.890Z,28.98
2023-04-28T03:07:59.009Z,32.00
2023-04-28T03:13:20.859Z,29.10
2023-04-28T03:18:42.688Z,28.73
2023-04-28T03:24:05.799Z,27.25
2023-04-28T03:29:27.782Z,29.90
2023-04-28T03:34:49.729Z,31.02
2023-04-28T03:40:11.812Z,34.78
2023-04-28T03:45:33.866Z,28.83
2023-04-28T03:50:55.701Z,28.50
2023-04-28T03:56:17.548Z,32.00
2023-04-28T04:01:39.368Z,33.17
2023-04-28T04:07:01.432Z,27.90
2023-04-28T04:12:12.983Z,33.30
2023-04-28T04:17:34.999Z,31.63
2023-04-28T04:22:56.881Z,31.15
2023-04-28T04:28:18.804Z,32.13
2023-04-28T04:33:40.680Z,33.13
2023-04-28T04:39:02.875Z,32.38
2023-04-28T04:44:24.697Z,24.08
2023-04-28T04:49:46.630Z,20.98
2023-04-28T04:55:08.867Z,22.00
2023-04-28T05:00:30.831Z,18.58
2023-04-28T05:05:52.709Z,18.15
2023-04-28T05:11:14.721Z,21.88
2023-04-28T05:16:36.607Z,16.58
2023-04-28T05:21:58.535Z,17.63
2023-04-28T05:27:20.396Z,21.17
2023-04-28T05:32:42.304Z,16.38
2023-04-28T05:38:04.163Z,16.25
2023-04-28T05:43:25.952Z,20.40
2023-04-28T05:48:47.796Z,18.58
2023-04-28T05:54:09.628Z,16.15
2023-04-28T05:59:31.555Z,18.40
2023-04-28T06:04:53.540Z,20.67
2023-04-28T06:10:15.513Z,16.63
2023-04-28T06:15:37.506Z,16.13
2023-04-28T06:20:59.415Z,18.85
2023-04-28T06:26:21.400Z,12.15
2023-04-28T06:31:43.375Z,13.63
2023-04-28T06:37:05.283Z,15.13
2023-04-28T06:42:27.220Z,12.10
2023-04-28T06:47:49.095Z,12.43
2023-04-28T06:53:10.935Z,10.32
2023-04-28T06:58:32.796Z,10.68
2023-04-28T07:03:54.783Z,9.80
2023-04-28T07:09:16.686Z,8.98
2023-04-28T07:14:38.503Z,11.25
2023-04-28T07:20:00.358Z,10.02
2023-04-28T07:25:22.274Z,6.70
2023-04-28T07:30:44.136Z,7.15
2023-04-28T07:36:06.470Z,9.18
2023-04-28T07:41:28.468Z,7.80
2023-04-28T07:46:52.133Z,10.25
2023-04-28T07:52:14.335Z,8.00
2023-04-28T07:57:36.358Z,6.45
2023-04-28T08:02:58.310Z,5.05
2023-04-28T08:08:20.459Z,6.03
2023-04-28T08:13:42.285Z,6.25
2023-04-28T08:19:04.213Z,6.47
2023-04-28T08:24:26.186Z,6.78
2023-04-28T08:29:48.053Z,7.18
2023-04-28T08:35:10.385Z,6.00
2023-04-28T08:40:32.294Z,3.95
2023-04-28T08:45:54.246Z,7.10
2023-04-28T08:51:23.681Z,7.60
2023-04-28T08:56:46.337Z,6.88
2023-04-28T09:02:09.144Z,5.53
2023-04-28T09:07:31.199Z,5.65
2023-04-28T09:12:54.856Z,4.93
2023-04-28T09:18:16.749Z,5.05
2023-04-28T09:23:48.728Z,7.65
2023-04-28T09:29:13.314Z,3.67
2023-04-28T09:34:54.940Z,8.18
2023-04-28T09:40:16.938Z,7.55
2023-04-28T09:45:39.969Z,6.10
2023-04-28T09:51:04.077Z,4.75
2023-04-28T09:56:28.658Z,6.57
2023-04-28T10:01:50.758Z,6.47
2023-04-28T10:07:14.075Z,8.98
2023-04-28T10:12:36.061Z,6.18
2023-04-28T10:17:59.330Z,6.72
2023-04-28T10:23:47.768Z,4.95
2023-04-28T10:29:09.766Z,7.00
2023-04-28T10:34:31.797Z,4.35
2023-04-28T10:40:31.153Z,6.97
2023-04-28T10:45:56.795Z,4.78
2023-04-28T10:51:19.432Z,6.13
2023-04-28T10:57:02.193Z,7.78
2023-04-28T11:02:50.641Z,4.03
2023-04-28T11:08:18.316Z,6.72
2023-04-28T11:13:41.924Z,6.93
2023-04-28T11:19:04.493Z,5.68
2023-04-28T11:24:28.165Z,4.80
2023-04-28T11:29:49.961Z,3.28
2023-04-28T11:35:11.770Z,4.38
2023-04-28T11:40:33.780Z,5.88
2023-04-28T11:45:55.755Z,6.57
2023-04-28T11:51:35.521Z,5.15
2023-04-28T11:56:58.348Z,5.82
2023-04-28T12:02:28.193Z,3.58
2023-04-28T12:07:50.403Z,5.50
2023-04-28T12:13:16.336Z,5.47
2023-04-28T12:18:38.192Z,4.87
2023-04-28T12:24:00.030Z,8.07
2023-04-28T12:29:41.533Z,6.32
2023-04-28T12:35:03.921Z,5.57
2023-04-28T12:40:26.088Z,4.70
2023-04-28T12:45:48.004Z,4.85
2023-04-28T12:51:09.951Z,5.05
2023-04-28T12:56:31.788Z,5.75
2023-04-28T13:01:53.640Z,5.75
2023-04-28T13:07:16.205Z,5.00
2023-04-28T13:12:38.063Z,4.90
2023-04-28T13:17:59.966Z,11.32
2023-04-28T13:23:22.027Z,7.30
2023-04-28T13:28:43.856Z,6.57
2023-04-28T13:34:05.704Z,6.57
2023-04-28T13:39:27.569Z,9.80
2023-04-28T13:44:49.541Z,7.15
2023-04-28T13:50:11.417Z,5.32
2023-04-28T13:55:33.378Z,7.30
2023-04-28T14:00:57.187Z,6.50
2023-04-28T14:06:19.301Z,5.93
2023-04-28T14:11:41.146Z,5.22
2023-04-28T14:17:03.141Z,7.82
2023-04-28T14:22:25.031Z,10.20
2023-04-28T14:27:50.791Z,8.32
2023-04-28T14:33:12.726Z,4.93
2023-04-28T14:38:34.639Z,8.90
2023-04-28T14:43:56.440Z,6.05
2023-04-28T14:49:18.286Z,6.93
2023-04-28T14:54:40.230Z,6.90
2023-04-28T15:00:03.370Z,8.95
2023-04-28T15:05:25.191Z,10.02
2023-04-28T15:10:47.054Z,8.80
2023-04-28T15:16:08.975Z,7.63
2023-04-28T15:21:30.837Z,7.72
2023-04-28T15:26:52.749Z,7.85
2023-04-28T15:32:14.580Z,7.82
2023-04-28T15:37:46.523Z,7.90
2023-04-28T15:43:08.411Z,10.23
2023-04-28T15:48:30.218Z,7.50
2023-04-28T15:53:52.309Z,6.30
2023-04-28T15:59:14.137Z,6.57
2023-04-28T16:04:36.077Z,8.50
2023-04-28T16:09:57.984Z,12.20
2023-04-28T16:15:20.587Z,7.70
2023-04-28T16:20:42.485Z,10.63
2023-04-28T16:26:04.412Z,8.95
2023-04-28T16:31:26.657Z,9.70
2023-04-28T16:36:48.515Z,11.38
2023-04-28T16:42:10.388Z,7.60
2023-04-28T16:47:32.203Z,7.30
2023-04-28T16:52:54.017Z,7.18
2023-04-28T16:58:15.907Z,10.30
2023-04-28T17:03:39.372Z,8.27
2023-04-28T17:09:01.232Z,10.48
2023-04-28T17:14:23.082Z,10.02
2023-04-28T17:19:44.920Z,8.20
2023-04-28T17:25:07.135Z,7.43
2023-04-28T17:30:28.966Z,11.25
2023-04-28T17:35:50.819Z,11.95
2023-04-28T17:41:12.658Z,5.82
2023-04-28T17:46:34.552Z,10.90
2023-04-28T17:51:56.388Z,8.20
2023-04-28T17:57:18.246Z,6.88
2023-04-28T18:02:40.233Z,10.98
2023-04-28T18:08:02.939Z,8.52
2023-04-28T18:13:24.806Z,7.72
2023-04-28T18:18:46.788Z,10.02
2023-04-28T18:24:08.642Z,9.40
2023-04-28T18:29:30.458Z,9.80
2023-04-28T18:34:52.434Z,8.18
2023-04-28T18:40:14.451Z,13.07
2023-04-28T18:45:37.771Z,8.30
2023-04-28T18:51:00.826Z,9.15
2023-04-28T18:56:22.751Z,11.20
2023-04-28T19:01:44.702Z,11.48
2023-04-28T19:07:06.658Z,11.93
2023-04-28T19:12:28.510Z,12.07
2023-04-28T19:17:50.557Z,10.65
2023-04-28T19:23:12.483Z,9.93
2023-04-28T19:28:34.594Z,12.23
2023-04-28T19:33:57.826Z,11.23
2023-04-28T19:39:19.767Z,16.88
2023-04-28T19:44:41.743Z,17.17
2023-04-28T19:50:03.783Z,10.35
2023-04-28T19:55:25.749Z,12.15
2023-04-28T20:00:47.633Z,16.88
2023-04-28T20:06:15.240Z,10.45
2023-04-28T20:11:37.075Z,34.95
2023-04-28T20:16:59.461Z,15.02
2023-04-28T20:22:21.291Z,13.63
2023-04-28T20:27:43.150Z,13.00
2023-04-28T20:33:04.996Z,15.77
2023-04-28T20:38:29.033Z,12.85
2023-04-28T20:43:50.853Z,15.65
2023-04-28T20:49:12.751Z,14.80
2023-04-28T20:54:35.502Z,15.88
2023-04-28T20:59:57.332Z,15.15
2023-04-28T21:05:19.348Z,14.88
2023-04-28T21:10:41.234Z,16.70
2023-04-28T21:16:03.081Z,16.65
2023-04-28T21:21:24.905Z,16.13
2023-04-28T21:26:46.700Z,13.95
2023-04-28T21:32:08.585Z,18.05
2023-04-28T21:37:31.309Z,14.82
2023-04-28T21:42:53.122Z,18.65
2023-04-28T21:48:15.026Z,18.05
2023-04-28T21:53:36.873Z,19.65
2023-04-28T21:58:58.786Z,23.58
2023-04-28T22:04:21.039Z,19.42
2023-04-28T22:09:42.936Z,17.85
2023-04-28T22:15:05.384Z,18.85
2023-04-28T22:20:27.282Z,16.40
2023-04-28T22:25:49.988Z,17.85
2023-04-28T22:31:11.845Z,14.77
2023-04-28T22:36:33.680Z,20.50
2023-04-28T22:41:55.612Z,19.08
2023-04-28T22:47:17.473Z,16.25
2023-04-28T22:52:39.391Z,18.08
2023-04-28T22:58:01.293Z,18.20
2023-04-28T23:03:23.265Z,17.65
2023-04-28T23:08:45.151Z,18.92
2023-04-28T23:14:06.994Z,18.08
2023-04-28T23:19:28.881Z,15.68
2023-04-28T23:24:50.699Z,13.65
2023-04-28T23:30:13.092Z,15.18
2023-04-28T23:35:34.908Z,16.85
2023-04-28T23:40:56.751Z,15.63
2023-04-28T23:46:18.669Z,16.35
2023-04-28T23:51:40.511Z,17.88
2023-04-28T23:57:02.384Z,13.98
